Time;durP1;ratioP1;P1;durP2;ratioP2;P2;SDS_P1;SDS_P2;PMS_P1;PMS_P2;Temp;Humidity;BMP_temperature;BMP_pressure;BME280_temperature;BME280_humidity;BME280_pressure;Samples;Min_cycle;Max_cycle;Signal;HPM_P1;HPM_P2
2021/12/21 00:02:24;;;;;;;19.90;9.30;;;0.50;99.90;;;;;;4884282;29;20515;-78
2021/12/21 00:04:51;;;;;;;15.63;7.77;;;0.50;99.90;;;;;;4904697;29;20475;-78
2021/12/21 00:07:18;;;;;;;16.80;6.00;;;0.50;99.90;;;;;;4875564;29;20032;-78
2021/12/21 00:09:44;;;;;;;12.90;5.90;;;0.40;99.90;;;;;;4891690;29;20039;-78
2021/12/21 00:12:14;;;;;;;12.30;5.87;;;0.50;99.90;;;;;;4865206;29;20062;-78
2021/12/21 00:15:20;;;;;;;10.13;4.93;;;0.40;99.90;;;;;;4864652;29;20047;-78
2021/12/21 00:18:00;;;;;;;11.55;5.72;;;0.40;99.90;;;;;;4904061;29;20044;-78
2021/12/21 00:25:23;;;;;;;12.23;4.27;;;0.30;99.90;;;;;;4890870;29;20039;-78
2021/12/21 00:27:52;;;;;;;9.77;4.20;;;0.30;99.90;;;;;;4888777;29;20369;-78
2021/12/21 00:30:19;;;;;;;9.90;3.53;;;0.30;99.90;;;;;;4871524;29;20072;-79
2021/12/21 00:32:45;;;;;;;9.77;3.63;;;0.20;99.90;;;;;;4892111;29;20690;-79
2021/12/21 00:35:12;;;;;;;10.93;3.93;;;0.20;99.90;;;;;;4859538;29;20048;-78
2021/12/21 00:37:41;;;;;;;8.30;3.80;;;0.20;99.90;;;;;;4892460;29;20050;-79
2021/12/21 00:40:11;;;;;;;10.67;4.03;;;0.20;99.90;;;;;;4879642;29;20044;-80
2021/12/21 00:42:37;;;;;;;9.70;3.77;;;0.20;99.90;;;;;;4873194;29;20044;-80
2021/12/21 00:45:05;;;;;;;8.93;3.83;;;0.20;99.90;;;;;;4879969;29;20044;-79
2021/12/21 00:47:33;;;;;;;8.00;3.67;;;0.20;99.90;;;;;;4873917;29;20504;-79
2021/12/21 00:50:03;;;;;;;9.30;3.20;;;0.10;99.90;;;;;;4876833;29;20067;-79
2021/12/21 00:52:30;;;;;;;9.57;3.77;;;0.10;99.90;;;;;;4873701;29;20037;-79
2021/12/21 00:54:56;;;;;;;10.40;4.00;;;0.10;99.90;;;;;;4867538;29;20036;-79
2021/12/21 00:57:23;;;;;;;12.20;3.63;;;0.10;99.90;;;;;;4868731;29;20535;-80
2021/12/21 00:59:49;;;;;;;8.07;3.73;;;0.10;99.90;;;;;;4856458;29;20052;-79
2021/12/21 01:02:16;;;;;;;8.30;3.97;;;0.10;99.90;;;;;;4862636;29;20033;-79
2021/12/21 01:04:47;;;;;;;11.80;3.80;;;0.00;99.90;;;;;;4882640;29;20488;-79
2021/12/21 01:12:40;;;;;;;12.30;4.73;;;0.00;99.90;;;;;;4870497;29;20045;-79
2021/12/21 01:17:55;;;;;;;10.90;4.33;;;-0.10;99.90;;;;;;4873863;29;20045;-79
2021/12/21 01:23:28;;;;;;;10.43;3.77;;;-0.10;99.90;;;;;;4878751;29;20036;-79
2021/12/21 01:30:54;;;;;;;10.43;3.37;;;-0.20;99.90;;;;;;4890111;29;20051;-79
2021/12/21 01:35:52;;;;;;;8.67;3.23;;;-0.20;99.90;;;;;;4873837;29;20053;-79
2021/12/21 01:38:40;;;;;;;9.80;4.30;;;-0.20;99.90;;;;;;4862784;29;20046;-79
2021/12/21 01:41:29;;;;;;;8.30;4.10;;;-0.20;99.90;;;;;;4862460;29;20044;-79
2021/12/21 01:44:23;;;;;;;8.10;3.20;;;-0.20;99.90;;;;;;4880386;29;20047;-79
2021/12/21 01:49:42;;;;;;;7.47;3.57;;;-0.30;99.90;;;;;;4896151;29;20607;-79
2021/12/21 01:52:13;;;;;;;8.57;3.93;;;-0.30;99.90;;;;;;4869603;29;20066;-80
2021/12/21 01:54:40;;;;;;;14.07;4.17;;;-0.30;99.90;;;;;;4868545;29;20040;-80
2021/12/21 01:57:07;;;;;;;10.43;4.23;;;-0.30;99.90;;;;;;4900028;29;20048;-79
2021/12/21 01:59:36;;;;;;;8.00;3.50;;;-0.30;99.90;;;;;;4879067;29;20044;-79
2021/12/21 02:02:04;;;;;;;14.07;3.83;;;-0.30;99.90;;;;;;4897843;29;20467;-79
2021/12/21 02:04:40;;;;;;;8.27;4.10;;;-0.30;99.90;;;;;;4930557;29;20044;-79
2021/12/21 02:07:12;;;;;;;8.83;3.83;;;-0.30;99.90;;;;;;4902422;29;20047;-80
2021/12/21 02:09:38;;;;;;;6.05;3.63;;;-0.30;99.90;;;;;;4873177;29;20047;-80
2021/12/21 02:12:09;;;;;;;9.47;4.50;;;-0.30;99.90;;;;;;4916316;29;20077;-79
2021/12/21 02:14:37;;;;;;;6.83;3.07;;;-0.30;99.90;;;;;;4898271;29;20048;-79
2021/12/21 02:20:05;;;;;;;9.38;2.85;;;-0.30;99.90;;;;;;4882980;29;20054;-79
2021/12/21 02:22:35;;;;;;;11.03;3.40;;;-0.30;99.90;;;;;;4899197;29;20044;-79
2021/12/21 02:25:20;;;;;;;8.57;2.70;;;-0.40;99.90;;;;;;4917235;29;20044;-78
2021/12/21 02:30:23;;;;;;;6.80;3.57;;;-0.40;99.90;;;;;;4918073;29;20388;-79
2021/12/21 02:32:50;;;;;;;4.50;2.37;;;-0.40;99.90;;;;;;4880019;29;20048;-79
2021/12/21 02:35:18;;;;;;;7.10;3.03;;;-0.40;99.90;;;;;;4897942;29;20042;-80
2021/12/21 02:37:45;;;;;;;10.40;3.17;;;-0.40;99.90;;;;;;4913651;29;20036;-79
2021/12/21 02:40:12;;;;;;;11.33;3.30;;;-0.40;99.90;;;;;;4883568;29;20397;-79
2021/12/21 02:42:38;;;;;;;5.80;2.80;;;-0.40;99.90;;;;;;4896923;29;20044;-79
2021/12/21 02:45:06;;;;;;;7.57;3.23;;;-0.40;99.90;;;;;;4898699;29;20060;-79
2021/12/21 02:47:33;;;;;;;8.13;3.30;;;-0.40;99.90;;;;;;4889698;29;20060;-79
2021/12/21 02:49:59;;;;;;;9.47;3.97;;;-0.40;99.90;;;;;;4874322;29;20036;-79
2021/12/21 02:52:26;;;;;;;6.73;3.77;;;-0.50;99.90;;;;;;4876886;29;20078;-79
2021/12/21 02:54:53;;;;;;;8.03;4.20;;;-0.40;99.90;;;;;;4879505;29;20514;-79
2021/12/21 02:57:19;;;;;;;11.73;4.87;;;-0.40;99.90;;;;;;4861863;29;20726;-79
2021/12/21 02:59:46;;;;;;;8.67;4.33;;;-0.50;99.90;;;;;;4882907;29;20036;-79
2021/12/21 03:02:12;;;;;;;14.80;5.07;;;-0.40;99.90;;;;;;4877545;29;20041;-78
2021/12/21 03:04:43;;;;;;;7.67;4.33;;;-0.40;99.90;;;;;;4888270;29;20106;-79
2021/12/21 03:10:00;;;;;;;9.80;5.43;;;-0.40;99.90;;;;;;4877248;29;20404;-79
2021/12/21 03:15:22;;;;;;;15.38;5.15;;;-0.50;99.90;;;;;;4858068;29;20063;-80
2021/12/21 03:17:49;;;;;;;15.10;6.90;;;-0.50;99.90;;;;;;4894151;29;20039;-79
2021/12/21 03:20:16;;;;;;;11.60;6.47;;;-0.50;99.90;;;;;;4889068;29;20051;-80
2021/12/21 03:22:43;;;;;;;10.40;5.93;;;-0.50;99.90;;;;;;4874726;29;20036;-80
2021/12/21 03:25:10;;;;;;;10.80;6.23;;;-0.50;99.90;;;;;;4875936;29;20047;-79
2021/12/21 03:27:37;;;;;;;11.33;6.63;;;-0.50;99.90;;;;;;4878851;29;20051;-79
2021/12/21 03:30:07;;;;;;;12.43;6.73;;;-0.50;99.90;;;;;;4878299;29;20051;-79
2021/12/21 03:32:34;;;;;;;14.77;7.43;;;-0.50;99.90;;;;;;4880571;29;20063;-79
2021/12/21 03:35:00;;;;;;;12.47;7.10;;;-0.50;99.90;;;;;;4892252;29;20051;-79
2021/12/21 03:37:27;;;;;;;13.47;8.10;;;-0.50;99.90;;;;;;4893368;29;20040;-79
2021/12/21 03:39:55;;;;;;;13.10;7.23;;;-0.50;99.90;;;;;;4874836;29;20062;-79
2021/12/21 03:42:23;;;;;;;13.43;8.27;;;-0.50;99.90;;;;;;4877664;29;20106;-80
2021/12/21 03:44:50;;;;;;;16.43;8.10;;;-0.50;99.90;;;;;;4891219;29;20048;-80
2021/12/21 03:47:18;;;;;;;15.03;8.30;;;-0.50;99.90;;;;;;4885753;29;20394;-80
2021/12/21 03:52:14;;;;;;;15.73;8.77;;;-0.50;99.90;;;;;;4899340;29;20044;-79
2021/12/21 03:54:44;;;;;;;17.27;8.00;;;-0.50;99.90;;;;;;4875866;29;20040;-79
2021/12/21 03:57:11;;;;;;;17.57;9.40;;;-0.50;99.90;;;;;;4900289;29;20044;-80
2021/12/21 03:59:40;;;;;;;14.97;9.27;;;-0.50;99.90;;;;;;4880854;29;20041;-80
2021/12/21 04:02:08;;;;;;;18.07;9.03;;;-0.50;99.90;;;;;;4876811;29;20053;-79
2021/12/21 04:04:34;;;;;;;18.43;8.50;;;-0.50;99.90;;;;;;4896281;29;20044;-80
2021/12/21 04:07:01;;;;;;;16.60;9.13;;;-0.50;99.90;;;;;;4898211;29;20040;-79
2021/12/21 04:09:27;;;;;;;18.47;9.60;;;-0.50;99.90;;;;;;4856225;29;20072;-79
2021/12/21 04:11:54;;;;;;;13.67;7.97;;;-0.50;99.90;;;;;;4896207;29;20044;-79
2021/12/21 04:14:21;;;;;;;19.80;7.63;;;-0.50;99.90;;;;;;4859792;29;20048;-79
2021/12/21 04:16:49;;;;;;;14.80;7.47;;;-0.50;99.90;;;;;;4862356;29;20067;-79
2021/12/21 04:19:17;;;;;;;15.30;7.83;;;-0.60;99.90;;;;;;4905866;29;20437;-78
2021/12/21 04:21:43;;;;;;;18.87;8.67;;;-0.60;99.90;;;;;;4908784;29;20032;-80
2021/12/21 04:24:10;;;;;;;14.47;7.47;;;-0.60;99.90;;;;;;4873803;29;20048;-78
2021/12/21 04:26:36;;;;;;;14.77;7.23;;;-0.60;99.90;;;;;;4907458;29;20032;-79
2021/12/21 04:29:03;;;;;;;14.67;7.90;;;-0.60;99.90;;;;;;4890772;29;20037;-79
2021/12/21 04:31:29;;;;;;;14.53;7.73;;;-0.60;99.90;;;;;;4866479;29;20052;-79
2021/12/21 04:33:56;;;;;;;16.47;8.20;;;-0.60;99.90;;;;;;4866365;29;20070;-79
2021/12/21 04:36:22;;;;;;;13.63;7.43;;;-0.60;99.90;;;;;;4863445;29;20040;-79
2021/12/21 04:38:50;;;;;;;13.93;8.27;;;-0.60;99.90;;;;;;4881580;29;20491;-79
2021/12/21 04:41:26;;;;;;;14.97;7.30;;;-0.60;99.90;;;;;;4885810;29;20036;-80
2021/12/21 04:43:56;;;;;;;14.57;7.57;;;-0.60;99.90;;;;;;4892186;29;20039;-80
2021/12/21 04:46:23;;;;;;;15.30;6.73;;;-0.70;99.90;;;;;;4864525;29;20395;-80
2021/12/21 04:48:51;;;;;;;11.03;7.50;;;-0.70;99.90;;;;;;4854453;29;20052;-80
2021/12/21 04:51:18;;;;;;;11.73;6.40;;;-0.70;99.90;;;;;;4879809;29;20063;-80
2021/12/21 04:53:44;;;;;;;14.17;7.07;;;-0.70;99.90;;;;;;4880886;29;20040;-80
2021/12/21 04:56:11;;;;;;;11.30;6.57;;;-0.70;99.90;;;;;;4877028;29;20071;-78
2021/12/21 04:58:37;;;;;;;13.20;6.30;;;-0.80;99.90;;;;;;4879754;29;20388;-80
2021/12/21 05:01:04;;;;;;;12.30;6.23;;;-0.80;99.90;;;;;;4894798;29;20032;-79
2021/12/21 05:03:31;;;;;;;11.13;5.93;;;-0.80;99.90;;;;;;4874978;29;20044;-79
2021/12/21 05:05:59;;;;;;;14.87;6.97;;;-0.70;99.90;;;;;;4871756;29;20052;-79
2021/12/21 05:08:31;;;;;;;13.43;6.30;;;-0.80;99.90;;;;;;4873003;29;20046;-79
2021/12/21 05:11:01;;;;;;;12.88;6.68;;;-0.80;99.90;;;;;;4888084;29;20044;-79
2021/12/21 05:13:31;;;;;;;14.20;6.03;;;-0.80;99.90;;;;;;4858900;29;20044;-79
2021/12/21 05:15:58;;;;;;;12.17;6.47;;;-0.80;99.90;;;;;;4875647;29;20424;-79
2021/12/21 05:18:26;;;;;;;9.70;5.83;;;-0.80;99.90;;;;;;4862639;29;20059;-79
2021/12/21 05:20:53;;;;;;;9.67;5.40;;;-0.90;99.90;;;;;;4876191;29;20521;-79
2021/12/21 05:23:20;;;;;;;12.30;5.37;;;-0.90;99.90;;;;;;4877304;29;20033;-79
2021/12/21 05:25:46;;;;;;;13.50;5.43;;;-0.90;99.90;;;;;;4857820;29;20036;-79
2021/12/21 05:28:14;;;;;;;14.27;5.50;;;-0.90;99.90;;;;;;4881842;29;20044;-79
2021/12/21 05:30:41;;;;;;;10.33;5.53;;;-0.90;99.90;;;;;;4887564;29;20048;-80
2021/12/21 05:33:10;;;;;;;10.27;5.77;;;-0.90;99.90;;;;;;4880454;29;20047;-81
2021/12/21 05:35:37;;;;;;;13.80;5.97;;;-0.90;99.90;;;;;;4907569;29;20396;-80
2021/12/21 05:38:06;;;;;;;9.20;5.37;;;-0.90;99.90;;;;;;4895924;29;20059;-80
2021/12/21 05:40:38;;;;;;;12.43;5.43;;;-0.90;99.90;;;;;;4883195;29;20427;-79
2021/12/21 05:43:06;;;;;;;9.83;4.60;;;-0.90;99.90;;;;;;4896023;29;20472;-80
2021/12/21 05:45:33;;;;;;;12.07;4.83;;;-0.90;99.90;;;;;;4878532;29;20044;-80
2021/12/21 05:48:00;;;;;;;11.77;5.70;;;-0.90;99.90;;;;;;4853932;29;20515;-80
2021/12/21 05:50:26;;;;;;;11.10;4.40;;;-1.00;99.90;;;;;;4876707;29;20460;-80
2021/12/21 05:52:53;;;;;;;11.83;5.50;;;-1.00;99.90;;;;;;4879650;29;20047;-80
2021/12/21 05:55:20;;;;;;;12.80;5.63;;;-0.90;99.90;;;;;;4880894;29;20047;-81
2021/12/21 05:57:48;;;;;;;15.70;5.77;;;-0.90;99.90;;;;;;4896493;29;20488;-81
2021/12/21 06:00:19;;;;;;;17.20;5.17;;;-0.90;99.90;;;;;;4892080;29;20040;-79
2021/12/21 06:02:45;;;;;;;14.90;5.60;;;-0.90;99.90;;;;;;4867658;29;20048;-80
2021/12/21 06:05:12;;;;;;;12.57;5.30;;;-0.90;99.90;;;;;;4872436;29;20146;-80
2021/12/21 06:07:39;;;;;;;10.07;4.83;;;-0.90;99.90;;;;;;4864644;29;20043;-80
2021/12/21 06:10:16;;;;;;;10.90;4.97;;;-1.00;99.90;;;;;;4876214;29;20803;-80
2021/12/21 06:24:35;;;;;;;14.43;6.83;;;-1.00;99.90;;;;;;4914877;29;20028;-80
2021/12/21 06:26:35;;;;;;;12.80;5.50;;;-1.00;99.90;;;;;;4913465;29;20052;-80
2021/12/21 06:29:02;;;;;;;12.20;6.47;;;-1.00;99.90;;;;;;4881221;29;20036;-80
2021/12/21 06:31:28;;;;;;;13.03;6.43;;;-1.00;99.90;;;;;;4868943;29;20035;-78
2021/12/21 06:33:55;;;;;;;13.70;5.90;;;-1.00;99.90;;;;;;4915369;29;20040;-80
2021/12/21 06:36:22;;;;;;;13.93;7.87;;;-1.00;99.90;;;;;;4860832;29;20036;-79
2021/12/21 06:38:49;;;;;;;15.27;7.87;;;-1.00;99.90;;;;;;4878511;29;20047;-80
2021/12/21 06:41:16;;;;;;;19.10;9.17;;;-0.90;99.90;;;;;;4884535;29;20039;-78
2021/12/21 06:43:43;;;;;;;19.07;9.40;;;-0.90;99.90;;;;;;4899827;29;20044;-78
2021/12/21 06:46:20;;;;;;;29.47;13.07;;;-0.90;99.90;;;;;;4876329;29;20091;-80
2021/12/21 06:51:43;;;;;;;15.93;8.73;;;-1.00;99.90;;;;;;4894419;29;20063;-77
2021/12/21 06:54:10;;;;;;;16.83;9.47;;;-1.00;99.90;;;;;;4867656;29;20066;-77
2021/12/21 06:56:37;;;;;;;15.63;9.53;;;-1.00;99.90;;;;;;4897553;29;20051;-78
2021/12/21 06:59:03;;;;;;;17.17;8.97;;;-1.00;99.90;;;;;;4881629;29;20040;-76
2021/12/21 07:01:31;;;;;;;13.73;8.10;;;-1.10;99.90;;;;;;4916150;29;20036;-78
2021/12/21 07:03:58;;;;;;;14.20;8.33;;;-1.10;99.90;;;;;;4881985;29;20047;-79
2021/12/21 07:06:25;;;;;;;14.93;8.10;;;-1.10;99.90;;;;;;4861213;29;20036;-77
2021/12/21 07:09:03;;;;;;;12.43;6.43;;;-1.10;99.90;;;;;;4865766;29;20040;-76
2021/12/21 07:11:37;;;;;;;17.10;9.03;;;-1.10;99.90;;;;;;4883943;29;20036;-77
2021/12/21 07:19:34;;;;;;;20.17;11.00;;;-1.10;99.90;;;;;;4879468;29;20067;-77
2021/12/21 07:22:01;;;;;;;18.27;10.63;;;-1.10;99.90;;;;;;4881587;29;20383;-79
2021/12/21 07:24:27;;;;;;;18.53;9.43;;;-1.10;99.90;;;;;;4880939;29;20032;-78
2021/12/21 07:26:54;;;;;;;16.97;8.57;;;-1.10;99.90;;;;;;4899239;29;20078;-78
2021/12/21 07:29:21;;;;;;;15.03;7.97;;;-1.10;99.90;;;;;;4892391;29;20050;-78
2021/12/21 07:31:47;;;;;;;14.87;8.17;;;-1.10;99.90;;;;;;4872839;29;20044;-78
2021/12/21 07:34:14;;;;;;;14.47;8.67;;;-1.10;99.90;;;;;;4894368;29;20056;-78
2021/12/21 07:36:47;;;;;;;14.70;7.47;;;-1.10;99.90;;;;;;4887630;29;20474;-77
2021/12/21 07:39:17;;;;;;;13.73;7.57;;;-1.10;99.90;;;;;;4856605;29;20036;-77
2021/12/21 07:41:45;;;;;;;12.73;7.17;;;-1.20;99.90;;;;;;4857239;29;20455;-77
2021/12/21 07:44:12;;;;;;;15.83;6.93;;;-1.20;99.90;;;;;;4881200;29;20047;-77
2021/12/21 07:46:40;;;;;;;16.57;8.27;;;-1.10;99.90;;;;;;4890899;29;20537;-77
2021/12/21 07:49:07;;;;;;;12.80;7.73;;;-1.10;99.90;;;;;;4879039;29;20039;-77
2021/12/21 07:51:34;;;;;;;13.17;8.00;;;-1.10;99.90;;;;;;4866779;29;20065;-77
2021/12/21 07:54:00;;;;;;;15.07;8.00;;;-1.20;99.90;;;;;;4881304;29;20048;-77
2021/12/21 07:56:27;;;;;;;15.93;7.90;;;-1.20;99.90;;;;;;4877759;29;20051;-81
2021/12/21 07:58:54;;;;;;;15.00;7.80;;;-1.20;99.90;;;;;;4859327;29;20044;-77
2021/12/21 08:01:21;;;;;;;13.60;8.10;;;-1.20;99.90;;;;;;4861907;29;20054;-78
2021/12/21 08:03:48;;;;;;;19.97;8.43;;;-1.20;99.90;;;;;;4874345;29;20062;-77
2021/12/21 08:06:15;;;;;;;16.47;8.13;;;-1.10;99.90;;;;;;4876331;29;20040;-77
2021/12/21 08:08:44;;;;;;;15.27;8.33;;;-1.10;99.90;;;;;;4874083;29;20040;-77
2021/12/21 08:11:15;;;;;;;13.03;6.73;;;-1.10;99.90;;;;;;4890899;29;20036;-79
2021/12/21 08:13:44;;;;;;;15.23;7.60;;;-1.10;99.90;;;;;;4881659;29;20051;-80
2021/12/21 08:16:13;;;;;;;13.70;8.10;;;-1.00;99.90;;;;;;4875474;29;20059;-79
2021/12/21 08:18:40;;;;;;;16.23;7.90;;;-1.00;99.90;;;;;;4861186;29;20405;-79
2021/12/21 08:21:07;;;;;;;19.07;8.20;;;-1.00;99.90;;;;;;4865251;29;20048;-79
2021/12/21 08:23:34;;;;;;;13.57;7.63;;;-0.90;99.90;;;;;;4898751;29;20480;-80
2021/12/21 08:26:00;;;;;;;16.23;10.03;;;-0.90;99.90;;;;;;4874796;29;20047;-80
2021/12/21 08:28:27;;;;;;;17.23;9.67;;;-0.90;99.90;;;;;;4858707;29;20035;-78
2021/12/21 08:30:53;;;;;;;15.27;8.10;;;-0.80;99.90;;;;;;4863576;29;20483;-77
2021/12/21 08:33:20;;;;;;;13.90;8.93;;;-0.80;99.90;;;;;;4833370;29;20243;-76
2021/12/21 08:35:46;;;;;;;19.50;10.57;;;-0.70;99.90;;;;;;4860596;29;20044;-77
2021/12/21 08:38:16;;;;;;;24.40;11.60;;;-0.70;99.90;;;;;;4907422;29;20047;-78
2021/12/21 08:40:48;;;;;;;22.53;11.50;;;-0.60;99.90;;;;;;4869680;29;20040;-80
2021/12/21 08:43:18;;;;;;;;;;;-0.60;99.90;;;;;;4876847;29;21410;-81
2021/12/21 08:45:47;;;;;;;19.17;9.93;;;-0.50;99.90;;;;;;4869706;29;19927;-80
2021/12/21 08:48:15;;;;;;;18.47;9.90;;;-0.50;99.90;;;;;;4894974;29;20059;-79
2021/12/21 08:50:42;;;;;;;17.37;10.00;;;-0.40;99.90;;;;;;4861447;29;20043;-80
2021/12/21 08:53:09;;;;;;;20.67;11.17;;;-0.30;99.90;;;;;;4875082;29;20475;-80
2021/12/21 08:55:35;;;;;;;25.80;12.80;;;-0.30;99.90;;;;;;4873532;29;20055;-81
2021/12/21 08:58:02;;;;;;;23.50;13.57;;;-0.30;99.90;;;;;;4876552;29;20036;-79
2021/12/21 09:00:29;;;;;;;23.60;14.27;;;-0.20;99.90;;;;;;4905842;29;20041;-80
2021/12/21 09:02:55;;;;;;;30.50;15.37;;;-0.10;99.90;;;;;;4897024;29;20388;-80
2021/12/21 09:05:26;;;;;;;24.40;13.20;;;-0.10;99.90;;;;;;4873379;29;21138;-79
2021/12/21 09:07:54;;;;;;;23.70;13.83;;;0.00;99.90;;;;;;4870573;29;20048;-79
2021/12/21 09:10:22;;;;;;;28.23;14.33;;;0.00;99.90;;;;;;4888732;29;20044;-79
2021/12/21 09:12:49;;;;;;;24.93;13.80;;;0.10;99.90;;;;;;4879464;29;20029;-79
2021/12/21 09:15:17;;;;;;;22.97;13.80;;;0.10;99.90;;;;;;4865980;29;20044;-79
2021/12/21 09:17:47;;;;;;;28.20;15.47;;;0.20;99.90;;;;;;4879939;29;20043;-80
2021/12/21 09:20:17;;;;;;;25.17;15.73;;;0.30;99.90;;;;;;4893398;29;20028;-79
2021/12/21 09:22:45;;;;;;;27.83;14.87;;;0.30;99.90;;;;;;4910602;29;20519;-80
2021/12/21 09:25:12;;;;;;;25.00;13.33;;;0.40;99.90;;;;;;4880561;29;20472;-80
2021/12/21 09:27:39;;;;;;;26.83;14.70;;;0.40;99.90;;;;;;4902143;29;20036;-79
2021/12/21 09:30:09;;;;;;;29.43;16.00;;;0.50;99.90;;;;;;4864952;29;20496;-80
2021/12/21 09:32:35;;;;;;;27.50;16.10;;;0.50;99.90;;;;;;4892146;29;20566;-80
2021/12/21 09:35:03;;;;;;;32.53;17.67;;;0.60;99.90;;;;;;4885667;29;20056;-79
2021/12/21 09:37:31;;;;;;;34.00;18.27;;;0.70;99.90;;;;;;4869891;29;20496;-79
2021/12/21 09:39:58;;;;;;;30.57;18.03;;;0.80;99.90;;;;;;4872793;29;20586;-79
2021/12/21 09:42:30;;;;;;;29.07;17.07;;;0.80;99.90;;;;;;4887112;29;20437;-79
2021/12/21 09:44:58;;;;;;;24.08;16.35;;;0.90;99.90;;;;;;4911773;29;20044;-79
2021/12/21 09:47:29;;;;;;;26.93;14.73;;;0.90;99.90;;;;;;4871185;29;20488;-79
2021/12/21 09:49:56;;;;;;;24.70;14.50;;;1.00;99.90;;;;;;4906683;29;20500;-78
2021/12/21 09:52:29;;;;;;;22.70;14.57;;;1.20;99.90;;;;;;4863060;29;20040;-79
2021/12/21 09:54:57;;;;;;;21.63;12.13;;;1.30;99.90;;;;;;4875175;29;20037;-80
2021/12/21 09:57:23;;;;;;;55.17;26.90;;;1.50;99.90;;;;;;4874808;29;20048;-80
2021/12/21 09:59:50;;;;;;;33.97;19.37;;;1.70;99.90;;;;;;4890320;29;20041;-80
2021/12/21 10:02:19;;;;;;;27.42;17.70;;;2.00;99.90;;;;;;4879872;29;20048;-80
2021/12/21 10:04:49;;;;;;;23.00;15.50;;;2.30;99.90;;;;;;4856614;29;20033;-80
2021/12/21 10:07:16;;;;;;;20.58;12.15;;;2.60;99.90;;;;;;4878313;29;20036;-80
2021/12/21 10:09:43;;;;;;;20.42;12.25;;;3.00;99.90;;;;;;4909108;29;20047;-80
2021/12/21 10:12:14;;;;;;;25.00;16.45;;;3.40;99.90;;;;;;4871211;29;20040;-80
2021/12/21 10:14:41;;;;;;;34.90;21.17;;;3.70;99.90;;;;;;4894544;29;20055;-80
2021/12/21 10:17:10;;;;;;;30.45;18.85;;;4.00;99.90;;;;;;4884991;29;20499;-80
2021/12/21 10:19:42;;;;;;;31.48;19.95;;;4.20;99.90;;;;;;4905754;29;20059;-82
2021/12/21 10:22:14;;;;;;;28.65;19.58;;;4.40;99.90;;;;;;4860806;29;20523;-79
2021/12/21 10:24:49;;;;;;;24.40;17.17;;;4.70;99.90;;;;;;4909855;29;21145;-79
2021/12/21 10:27:19;;;;;;;23.48;17.10;;;5.00;99.90;;;;;;4882738;29;20044;-79
2021/12/21 10:29:48;;;;;;;28.55;18.10;;;5.20;99.90;;;;;;4876706;29;20044;-78
2021/12/21 10:32:31;;;;;;;25.90;18.70;;;5.40;99.90;;;;;;4917147;29;20032;-79
2021/12/21 10:35:10;;;;;;;25.52;17.45;;;5.50;99.90;;;;;;4876960;29;20039;-79
2021/12/21 10:37:42;;;;;;;28.25;18.40;;;5.50;99.90;;;;;;4861412;29;20028;-80
2021/12/21 10:40:11;;;;;;;40.75;25.58;;;5.30;99.90;;;;;;4863422;29;20048;-79
2021/12/21 10:42:46;;;;;;;45.88;25.75;;;5.00;99.90;;;;;;4874078;29;20037;-77
2021/12/21 10:45:13;;;;;;;32.50;22.27;;;4.80;99.90;;;;;;4883314;29;20047;-79
2021/12/21 10:47:43;;;;;;;29.90;21.23;;;4.50;99.90;;;;;;4889824;29;20063;-80
2021/12/21 10:50:11;;;;;;;34.90;22.27;;;4.20;99.90;;;;;;4858141;29;20035;-78
2021/12/21 10:52:47;;;;;;;30.45;21.20;;;4.00;99.90;;;;;;4857458;29;20055;-79
2021/12/21 10:55:15;;;;;;;34.45;23.00;;;3.80;99.90;;;;;;4895903;29;20036;-78
2021/12/21 10:57:42;;;;;;;32.80;21.52;;;3.60;99.90;;;;;;4865225;29;20399;-77
2021/12/21 11:00:14;;;;;;;28.67;21.38;;;3.50;99.90;;;;;;4876938;29;20040;-77
2021/12/21 11:02:41;;;;;;;30.67;20.77;;;3.40;99.90;;;;;;4874501;29;20503;-77
2021/12/21 11:05:12;;;;;;;30.80;20.15;;;3.30;99.90;;;;;;4849596;29;20028;-77
2021/12/21 11:07:51;;;;;;;40.03;22.88;;;3.20;99.90;;;;;;4883018;29;20131;-78
2021/12/21 11:10:28;;;;;;;30.27;21.05;;;3.10;99.90;;;;;;4872480;29;20055;-79
2021/12/21 11:13:00;;;;;;;28.90;20.05;;;3.00;99.90;;;;;;4874053;29;20051;-78
2021/12/21 11:15:35;;;;;;;35.80;24.83;;;2.90;99.90;;;;;;4878248;29;20048;-77
2021/12/21 11:18:12;;;;;;;39.37;23.77;;;2.80;99.90;;;;;;4884890;29;20043;-78
2021/12/21 11:20:41;;;;;;;30.83;21.27;;;2.70;99.90;;;;;;4894254;29;20508;-79
2021/12/21 11:23:10;;;;;;;33.13;21.30;;;2.70;99.90;;;;;;4890455;29;20031;-79
2021/12/21 11:25:37;;;;;;;31.67;21.65;;;2.60;99.90;;;;;;4904235;29;20570;-79
2021/12/21 11:28:05;;;;;;;30.13;20.60;;;2.60;99.90;;;;;;4841904;29;20032;-79
2021/12/21 11:30:34;;;;;;;38.33;22.67;;;2.60;99.90;;;;;;4884322;29;20075;-79
2021/12/21 11:33:10;;;;;;;36.50;22.52;;;2.60;99.90;;;;;;4911027;29;20040;-80
2021/12/21 11:38:08;;;;;;;33.03;21.47;;;2.50;99.90;;;;;;4874289;29;20047;-76
2021/12/21 11:40:45;;;;;;;42.53;22.27;;;2.50;99.90;;;;;;4858172;29;20055;-81
2021/12/21 11:43:23;;;;;;;36.60;22.77;;;2.50;99.90;;;;;;4906036;29;20043;-80
2021/12/21 11:45:58;;;;;;;30.10;19.60;;;2.60;99.90;;;;;;4872135;29;20036;-78
2021/12/21 11:48:48;;;;;;;30.10;17.57;;;2.60;99.90;;;;;;4888567;29;20063;-78
2021/12/21 11:51:15;;;;;;;29.80;17.60;;;2.50;99.90;;;;;;4872002;29;20392;-77
2021/12/21 11:53:42;;;;;;;29.60;17.43;;;2.60;99.90;;;;;;4875885;29;20051;-77
2021/12/21 11:56:16;;;;;;;31.83;17.80;;;2.50;99.90;;;;;;4893805;29;20043;-77
2021/12/21 11:58:42;;;;;;;30.10;15.23;;;2.50;99.90;;;;;;4893063;29;20044;-78
2021/12/21 12:01:20;;;;;;;35.23;18.30;;;2.50;99.90;;;;;;4865911;29;20146;-80
2021/12/21 12:03:59;;;;;;;32.90;17.30;;;2.60;99.90;;;;;;4885026;29;20036;-78
2021/12/21 12:06:29;;;;;;;31.07;16.23;;;2.60;99.90;;;;;;4900338;29;20384;-78
2021/12/21 12:09:02;;;;;;;22.53;14.27;;;2.60;99.90;;;;;;4862780;29;20028;-78
2021/12/21 12:11:35;;;;;;;24.67;14.33;;;2.60;99.90;;;;;;4872856;29;20047;-78
2021/12/21 12:14:13;;;;;;;21.93;13.60;;;2.60;99.90;;;;;;4885317;29;20036;-79
2021/12/21 12:16:49;;;;;;;22.33;13.00;;;2.60;99.90;;;;;;4865711;29;20048;-79
2021/12/21 12:19:18;;;;;;;21.83;11.93;;;2.60;99.90;;;;;;4871834;29;20047;-79
2021/12/21 12:21:53;;;;;;;20.75;12.75;;;2.60;99.90;;;;;;4863601;29;20036;-79
2021/12/21 12:24:22;;;;;;;18.77;12.80;;;2.60;99.90;;;;;;4865261;29;20395;-79
2021/12/21 12:27:15;;;;;;;21.23;13.43;;;2.50;99.90;;;;;;4891150;29;20044;-79
2021/12/21 12:29:54;;;;;;;22.23;13.33;;;2.50;99.90;;;;;;4882650;29;20460;-80
2021/12/21 12:32:36;;;;;;;21.47;13.43;;;2.50;99.90;;;;;;4875013;29;20058;-79
2021/12/21 12:35:05;;;;;;;20.30;13.23;;;2.50;99.90;;;;;;4889696;29;20030;-79
2021/12/21 12:38:12;;;;;;;19.03;11.70;;;2.50;99.90;;;;;;4896283;29;20036;-78
2021/12/21 12:40:52;;;;;;;26.10;14.30;;;2.60;99.90;;;;;;4868176;29;20373;-78
2021/12/21 12:43:25;;;;;;;22.67;14.43;;;2.60;99.90;;;;;;4879132;29;20051;-78
2021/12/21 12:46:03;;;;;;;22.48;12.73;;;2.60;99.90;;;;;;4862006;29;20024;-78
2021/12/21 12:48:47;;;;;;;18.67;10.73;;;2.60;99.90;;;;;;4882388;29;20055;-78
2021/12/21 12:51:42;;;;;;;15.33;10.10;;;2.60;99.90;;;;;;4863786;29;20036;-78
2021/12/21 12:54:16;;;;;;;16.77;10.43;;;2.60;99.90;;;;;;4872612;29;20052;-78
2021/12/21 12:56:44;;;;;;;18.00;11.13;;;2.60;99.90;;;;;;4872149;29;20075;-78
2021/12/21 12:59:10;;;;;;;20.23;10.63;;;2.60;99.90;;;;;;4865505;29;20535;-76
2021/12/21 13:01:42;;;;;;;20.17;12.00;;;2.60;99.90;;;;;;4892917;29;20044;-77
2021/12/21 13:04:12;;;;;;;16.95;11.82;;;2.60;99.90;;;;;;4873295;29;20032;-77
2021/12/21 13:06:41;;;;;;;19.03;11.30;;;2.60;99.90;;;;;;4860926;29;20384;-77
2021/12/21 13:09:12;;;;;;;20.33;12.27;;;2.60;99.90;;;;;;4884895;29;20037;-77
2021/12/21 13:11:40;;;;;;;19.00;11.20;;;2.60;99.90;;;;;;4890400;29;20070;-77
2021/12/21 13:14:10;;;;;;;18.57;11.80;;;2.60;99.90;;;;;;4878165;29;20047;-78
2021/12/21 13:16:38;;;;;;;16.27;10.03;;;2.60;99.90;;;;;;4895947;29;20046;-78
2021/12/21 13:19:10;;;;;;;20.67;12.30;;;2.60;99.90;;;;;;4893112;29;20037;-79
2021/12/21 13:21:58;;;;;;;22.90;13.02;;;2.60;99.90;;;;;;4876153;29;20044;-79
2021/12/21 13:24:33;;;;;;;21.60;12.20;;;2.60;99.90;;;;;;4870938;29;20037;-79
2021/12/21 13:27:03;;;;;;;18.40;11.90;;;2.60;99.90;;;;;;4894822;29;20040;-78
2021/12/21 13:29:32;;;;;;;21.23;11.43;;;2.60;99.90;;;;;;4875151;29;20028;-79
2021/12/21 13:32:01;;;;;;;17.90;9.43;;;2.60;99.90;;;;;;4876713;29;20047;-78
2021/12/21 13:34:28;;;;;;;12.77;7.63;;;2.60;99.90;;;;;;4852728;29;20044;-78
2021/12/21 13:37:00;;;;;;;14.57;7.17;;;2.60;99.90;;;;;;4870087;29;20048;-80
2021/12/21 13:39:34;;;;;;;18.43;7.40;;;2.60;99.90;;;;;;4882541;29;20047;-79
2021/12/21 13:42:03;;;;;;;11.70;7.67;;;2.60;99.90;;;;;;4886786;29;20029;-79
2021/12/21 13:44:36;;;;;;;18.03;7.43;;;2.60;99.90;;;;;;4908499;29;20028;-78
2021/12/21 13:47:22;;;;;;;13.25;7.45;;;2.50;99.90;;;;;;4880668;29;20052;-78
2021/12/21 13:49:57;;;;;;;12.33;6.97;;;2.50;99.90;;;;;;4882250;29;20044;-77
2021/12/21 13:52:31;;;;;;;13.00;6.83;;;2.40;99.90;;;;;;4878669;29;20040;-78
2021/12/21 13:54:58;;;;;;;11.33;6.03;;;2.40;99.90;;;;;;4877016;29;20047;-78